createdAt,value
2022-10-24T00:01:17.448Z,2.77
2022-10-24T00:03:44.777Z,3.07
2022-10-24T00:06:12.782Z,3.03
2022-10-24T00:08:41.556Z,2.70
2022-10-24T00:11:18.096Z,3.50
2022-10-24T00:13:45.558Z,3.10
2022-10-24T00:16:13.159Z,2.77
2022-10-24T00:18:40.680Z,2.90
2022-10-24T00:21:08.443Z,2.77
2022-10-24T00:23:36.397Z,3.53
2022-10-24T00:26:04.636Z,3.43
2022-10-24T00:28:34.244Z,2.77
2022-10-24T00:31:01.331Z,3.30
2022-10-24T00:33:28.432Z,2.90
2022-10-24T00:35:55.445Z,3.07
2022-10-24T00:38:22.510Z,3.27
2022-10-24T00:40:49.573Z,3.50
2022-10-24T00:43:23.688Z,3.60
2022-10-24T00:45:55.745Z,3.60
2022-10-24T00:48:46.869Z,3.00
2022-10-24T00:51:32.897Z,3.50
2022-10-24T00:54:04.442Z,4.43
2022-10-24T00:56:35.641Z,3.50
2022-10-24T00:59:05.752Z,3.47
2022-10-24T01:01:34.175Z,3.97
2022-10-24T01:04:01.878Z,3.00
2022-10-24T01:07:13.733Z,3.27
2022-10-24T01:10:14.772Z,3.67
2022-10-24T01:13:22.280Z,4.17
2022-10-24T01:16:29.792Z,4.60
2022-10-24T01:19:36.032Z,3.73
2022-10-24T01:22:10.287Z,3.80
2022-10-24T01:25:06.513Z,3.60
2022-10-24T01:28:23.911Z,3.67
2022-10-24T01:30:57.156Z,4.37
2022-10-24T01:33:38.668Z,3.80
2022-10-24T01:36:15.434Z,3.97
2022-10-24T01:38:51.792Z,3.30
2022-10-24T01:41:23.301Z,3.90
2022-10-24T01:44:05.505Z,3.70
2022-10-24T01:46:37.670Z,3.57
2022-10-24T01:49:16.208Z,4.23
2022-10-24T01:51:45.880Z,4.00
2022-10-24T01:54:14.027Z,3.90
2022-10-24T01:56:41.057Z,3.37
2022-10-24T01:59:29.702Z,3.83
2022-10-24T02:02:17.925Z,4.03
2022-10-24T02:05:10.030Z,3.00
2022-10-24T02:07:39.305Z,2.97
2022-10-24T02:10:27.678Z,3.13
2022-10-24T02:13:00.074Z,3.67
2022-10-24T02:15:30.309Z,3.97
2022-10-24T02:17:58.220Z,3.80
2022-10-24T02:20:37.461Z,3.10
2022-10-24T02:23:17.262Z,3.20
2022-10-24T02:25:49.101Z,2.90
2022-10-24T02:28:22.345Z,3.10
2022-10-24T02:31:08.754Z,3.17
2022-10-24T02:33:39.804Z,2.77
2022-10-24T02:36:10.723Z,3.23
2022-10-24T02:38:41.531Z,2.90
2022-10-24T02:41:11.517Z,3.67
2022-10-24T02:43:40.890Z,3.27
2022-10-24T02:46:09.137Z,2.70
2022-10-24T02:48:42.899Z,3.07
2022-10-24T02:51:10.265Z,3.20
2022-10-24T02:53:37.621Z,2.60
2022-10-24T02:56:04.917Z,3.03
2022-10-24T02:58:32.080Z,2.73
2022-10-24T03:00:59.224Z,3.03
2022-10-24T03:03:26.598Z,2.80
2022-10-24T03:05:53.745Z,2.50
2022-10-24T03:08:20.727Z,3.13
2022-10-24T03:10:47.783Z,2.57
2022-10-24T03:13:14.827Z,3.30
2022-10-24T03:15:41.937Z,2.63
2022-10-24T03:18:09.013Z,2.53
2022-10-24T03:20:36.247Z,2.50
2022-10-24T03:23:03.546Z,2.97
2022-10-24T03:25:30.637Z,2.20
2022-10-24T03:27:57.713Z,3.07
2022-10-24T03:30:24.804Z,3.03
2022-10-24T03:32:51.821Z,2.47
2022-10-24T03:35:18.970Z,2.60
2022-10-24T03:37:46.007Z,2.97
2022-10-24T03:40:13.167Z,2.77
2022-10-24T03:42:40.257Z,2.57
2022-10-24T03:45:08.022Z,2.77
2022-10-24T03:47:35.098Z,2.60
2022-10-24T03:50:02.176Z,3.10
2022-10-24T03:52:29.316Z,2.80
2022-10-24T03:54:56.329Z,2.50
2022-10-24T03:57:23.318Z,3.63
2022-10-24T03:59:50.351Z,2.53
2022-10-24T04:02:17.593Z,3.03
2022-10-24T04:04:44.623Z,2.83
2022-10-24T04:07:11.647Z,3.17
2022-10-24T04:09:38.704Z,2.93
2022-10-24T04:12:05.897Z,2.23
2022-10-24T04:14:33.174Z,2.50
2022-10-24T04:17:00.217Z,2.27
2022-10-24T04:19:27.336Z,2.80
2022-10-24T04:21:54.636Z,2.80
2022-10-24T04:24:21.724Z,2.63
2022-10-24T04:26:48.796Z,3.10
2022-10-24T04:29:15.842Z,3.00
2022-10-24T04:31:51.734Z,2.63
2022-10-24T04:34:18.775Z,2.87
2022-10-24T04:36:45.927Z,2.40
2022-10-24T04:39:13.199Z,3.13
2022-10-24T04:41:40.216Z,2.73
2022-10-24T04:44:07.286Z,3.17
2022-10-24T04:46:34.518Z,2.50
2022-10-24T04:49:01.559Z,3.50
2022-10-24T04:51:28.616Z,2.90
2022-10-24T04:53:55.682Z,4.13
2022-10-24T04:56:22.932Z,4.13
2022-10-24T04:58:49.972Z,3.10
2022-10-24T05:01:17.426Z,3.27
2022-10-24T05:03:44.549Z,2.77
2022-10-24T05:06:11.612Z,2.43
2022-10-24T05:08:38.810Z,2.60
2022-10-24T05:11:05.906Z,2.50
2022-10-24T05:13:35.929Z,2.87
2022-10-24T05:16:04.660Z,2.60
2022-10-24T05:18:32.522Z,2.67
2022-10-24T05:21:00.786Z,2.70
2022-10-24T05:23:28.060Z,3.63
2022-10-24T05:25:55.152Z,2.73
2022-10-24T05:28:22.273Z,2.53
2022-10-24T05:30:49.510Z,2.50
2022-10-24T05:33:16.567Z,2.87
2022-10-24T05:35:43.671Z,2.73
2022-10-24T05:38:10.930Z,2.30
2022-10-24T05:40:37.971Z,2.13
2022-10-24T05:43:05.065Z,2.43
2022-10-24T05:45:32.157Z,2.30
2022-10-24T05:47:59.428Z,3.10
2022-10-24T05:50:27.172Z,3.63
2022-10-24T05:52:54.365Z,2.47
2022-10-24T05:55:21.420Z,2.97
2022-10-24T05:57:48.527Z,2.43
2022-10-24T06:00:17.460Z,2.43
2022-10-24T06:05:17.248Z,2.93
2022-10-24T06:07:44.686Z,2.63
2022-10-24T06:10:12.689Z,2.57
2022-10-24T06:12:39.929Z,2.60
2022-10-24T06:15:08.916Z,3.07
2022-10-24T06:17:36.178Z,3.47
2022-10-24T06:20:04.382Z,2.57
2022-10-24T06:22:31.657Z,3.00
2022-10-24T06:24:58.680Z,2.70
2022-10-24T06:27:25.831Z,2.87
2022-10-24T06:29:52.937Z,2.70
2022-10-24T06:32:19.974Z,2.30
2022-10-24T06:34:46.944Z,2.40
2022-10-24T06:37:13.977Z,4.33
2022-10-24T06:39:41.013Z,6.93
2022-10-24T06:42:08.384Z,2.57
2022-10-24T06:44:36.802Z,5.10
2022-10-24T06:47:03.934Z,2.37
2022-10-24T06:49:30.970Z,2.70
2022-10-24T06:51:58.177Z,4.60
2022-10-24T06:54:27.765Z,3.13
2022-10-24T06:56:57.299Z,4.93
2022-10-24T06:59:24.465Z,31.70
2022-10-24T07:01:51.790Z,3.23
2022-10-24T07:04:18.970Z,2.43
2022-10-24T07:06:46.151Z,2.40
2022-10-24T07:09:15.420Z,3.70
2022-10-24T07:11:43.307Z,5.47
2022-10-24T07:14:11.313Z,2.50
2022-10-24T07:16:38.904Z,2.30
2022-10-24T07:19:06.664Z,2.27
2022-10-24T07:21:34.429Z,3.30
2022-10-24T07:24:01.599Z,3.17
2022-10-24T07:26:29.817Z,3.10
2022-10-24T07:31:34.943Z,4.37
2022-10-24T07:34:04.148Z,6.87
2022-10-24T07:36:31.429Z,3.93
2022-10-24T07:38:59.486Z,2.57
2022-10-24T07:41:29.165Z,2.90
2022-10-24T07:43:58.048Z,4.57
2022-10-24T07:46:25.581Z,3.53
2022-10-24T07:48:53.589Z,5.47
2022-10-24T07:51:22.080Z,4.97
2022-10-24T07:53:49.312Z,5.90
2022-10-24T07:56:18.029Z,6.00
2022-10-24T07:58:46.713Z,6.93
2022-10-24T08:01:23.031Z,3.70
2022-10-24T08:03:50.419Z,3.53
2022-10-24T08:06:26.894Z,3.43
2022-10-24T08:08:55.879Z,7.73
2022-10-24T08:11:27.584Z,8.37
2022-10-24T08:13:57.238Z,4.23
2022-10-24T08:16:25.729Z,3.10
2022-10-24T08:18:54.280Z,2.73
2022-10-24T08:21:22.813Z,3.13
2022-10-24T08:23:52.241Z,4.67
2022-10-24T08:26:22.424Z,3.00
2022-10-24T08:28:50.438Z,3.87
2022-10-24T08:31:20.332Z,4.20
2022-10-24T08:33:48.679Z,5.03
2022-10-24T08:36:28.839Z,5.30
2022-10-24T08:38:56.584Z,5.20
2022-10-24T08:41:50.795Z,5.00
2022-10-24T08:44:30.101Z,4.20
2022-10-24T08:47:34.194Z,5.53
2022-10-24T08:50:34.675Z,3.63
2022-10-24T08:53:09.830Z,3.00
2022-10-24T08:55:49.793Z,2.47
2022-10-24T08:58:26.286Z,2.60
2022-10-24T09:00:56.595Z,2.70
2022-10-24T09:03:58.747Z,2.53
2022-10-24T09:06:29.061Z,2.87
2022-10-24T09:09:18.834Z,3.00
2022-10-24T09:11:55.615Z,1.80
2022-10-24T09:14:34.513Z,1.30
2022-10-24T09:17:17.029Z,1.60
2022-10-24T09:19:55.425Z,1.30
2022-10-24T09:22:25.477Z,0.90
2022-10-24T09:24:58.676Z,1.20
2022-10-24T09:27:29.850Z,1.30
2022-10-24T09:29:58.297Z,1.40
2022-10-24T09:32:30.762Z,1.40
2022-10-24T09:35:09.468Z,1.33
2022-10-24T09:38:16.723Z,1.90
2022-10-24T09:40:53.920Z,1.67
2022-10-24T09:43:55.049Z,1.70
2022-10-24T09:46:35.149Z,1.37
2022-10-24T09:49:19.967Z,1.20
2022-10-24T09:52:05.558Z,1.43
2022-10-24T09:54:34.481Z,1.30
2022-10-24T09:57:18.077Z,1.30
2022-10-24T09:59:48.038Z,1.30
2022-10-24T10:02:35.141Z,1.73
2022-10-24T10:05:20.678Z,1.60
2022-10-24T10:07:50.004Z,1.60
2022-10-24T10:10:33.103Z,2.10
2022-10-24T10:13:23.408Z,2.13
2022-10-24T10:16:04.118Z,2.27
2022-10-24T10:18:43.932Z,2.27
2022-10-24T10:21:22.158Z,1.90
2022-10-24T10:24:02.047Z,1.67
2022-10-24T10:26:45.667Z,1.70
2022-10-24T10:29:24.011Z,1.63
2022-10-24T10:32:07.974Z,1.60
2022-10-24T10:34:43.261Z,1.63
2022-10-24T10:37:44.017Z,2.03
2022-10-24T10:40:43.448Z,2.33
2022-10-24T10:43:51.969Z,1.80
2022-10-24T10:46:37.306Z,1.63
2022-10-24T10:49:47.025Z,1.70
2022-10-24T10:52:25.712Z,1.53
2022-10-24T10:55:24.572Z,1.60
2022-10-24T10:58:18.468Z,1.63
2022-10-24T11:01:22.488Z,1.10
2022-10-24T11:04:27.777Z,2.00
2022-10-24T11:07:28.379Z,1.67
2022-10-24T11:10:01.268Z,2.70
2022-10-24T11:12:42.768Z,1.97
2022-10-24T11:15:31.892Z,1.90
2022-10-24T11:18:13.046Z,2.63
2022-10-24T11:21:10.303Z,1.80
2022-10-24T11:24:08.691Z,1.67
2022-10-24T11:26:48.258Z,2.20
2022-10-24T11:29:53.430Z,2.30
2022-10-24T11:32:49.259Z,1.90
2022-10-24T11:35:30.985Z,2.23
2022-10-24T11:38:08.438Z,1.80
2022-10-24T11:40:36.599Z,2.10
2022-10-24T11:43:36.585Z,1.60
2022-10-24T11:46:34.512Z,1.70
2022-10-24T11:49:29.607Z,1.33
2022-10-24T11:52:04.840Z,1.60
2022-10-24T11:54:41.552Z,1.73
2022-10-24T11:57:22.001Z,1.60
2022-10-24T11:59:53.382Z,1.93
2022-10-24T12:02:54.153Z,1.57
2022-10-24T12:06:06.375Z,1.80
2022-10-24T12:08:59.510Z,1.47
2022-10-24T12:11:46.725Z,1.53
2022-10-24T12:14:57.774Z,1.87
2022-10-24T12:17:45.425Z,1.70
2022-10-24T12:20:18.147Z,2.17
2022-10-24T12:22:45.769Z,2.10
2022-10-24T12:25:33.522Z,1.73
2022-10-24T12:28:03.868Z,1.87
2022-10-24T12:30:34.294Z,1.93
2022-10-24T12:33:24.480Z,1.43
2022-10-24T12:35:56.524Z,1.60
2022-10-24T12:39:16.079Z,2.00
2022-10-24T12:41:43.711Z,1.93
2022-10-24T12:44:51.084Z,1.60
2022-10-24T12:47:47.200Z,1.73
2022-10-24T12:50:52.347Z,1.70
2022-10-24T12:53:31.920Z,1.97
2022-10-24T12:56:11.884Z,2.03
2022-10-24T12:58:42.906Z,1.57
2022-10-24T13:01:44.463Z,1.50
2022-10-24T13:04:55.054Z,1.90
2022-10-24T13:07:58.592Z,1.63
2022-10-24T13:11:18.402Z,1.73
2022-10-24T13:14:19.248Z,1.20
2022-10-24T13:17:28.361Z,2.00
2022-10-24T13:20:33.893Z,1.87
2022-10-24T13:23:18.394Z,1.47
2022-10-24T13:25:46.648Z,1.60
2022-10-24T13:28:40.779Z,1.33
2022-10-24T13:31:48.634Z,1.50
2022-10-24T13:34:22.368Z,1.70
2022-10-24T13:36:58.282Z,1.43
2022-10-24T13:39:33.060Z,1.30
2022-10-24T13:42:21.429Z,1.50
2022-10-24T13:44:52.194Z,1.70
2022-10-24T13:47:29.878Z,1.73
2022-10-24T13:50:18.064Z,1.30
2022-10-24T13:52:57.863Z,1.43
2022-10-24T13:55:34.400Z,1.60
2022-10-24T13:58:21.350Z,1.63
2022-10-24T14:01:01.798Z,1.30
2022-10-24T14:03:30.548Z,1.30
2022-10-24T14:06:00.062Z,1.80
2022-10-24T14:08:34.645Z,1.67
2022-10-24T14:11:03.509Z,1.70
2022-10-24T14:13:31.867Z,1.80
2022-10-24T14:16:01.006Z,1.40
2022-10-24T14:18:28.429Z,1.63
2022-10-24T14:21:00.847Z,2.00
2022-10-24T14:23:36.878Z,1.63
2022-10-24T14:26:19.311Z,1.67
2022-10-24T14:28:59.660Z,1.50
2022-10-24T14:31:34.891Z,1.80
2022-10-24T14:34:06.156Z,2.00
2022-10-24T14:36:38.127Z,1.63
2022-10-24T14:39:06.257Z,1.73
2022-10-24T14:41:40.880Z,1.70
2022-10-24T14:44:10.910Z,1.57
2022-10-24T14:46:40.253Z,1.70
2022-10-24T14:49:52.346Z,1.60
2022-10-24T14:52:37.013Z,2.27
2022-10-24T14:55:22.298Z,1.63
2022-10-24T14:57:51.812Z,1.67
2022-10-24T15:00:24.242Z,1.70
2022-10-24T15:02:55.439Z,1.63
2022-10-24T15:05:52.619Z,1.57
2022-10-24T15:08:26.905Z,1.60
2022-10-24T15:11:25.485Z,1.60
2022-10-24T15:14:06.170Z,1.47
2022-10-24T15:16:39.549Z,1.40
2022-10-24T15:19:14.818Z,1.40
2022-10-24T15:21:44.550Z,1.50
2022-10-24T15:24:22.396Z,1.97
2022-10-24T15:26:49.740Z,1.63
2022-10-24T15:29:23.817Z,1.73
2022-10-24T15:31:52.009Z,1.47
2022-10-24T15:34:22.192Z,1.70
2022-10-24T15:36:51.151Z,2.00
2022-10-24T15:39:24.719Z,1.20
2022-10-24T15:41:52.755Z,1.80
2022-10-24T15:44:27.371Z,1.73
2022-10-24T15:46:55.100Z,1.50
2022-10-24T15:49:22.116Z,1.40
2022-10-24T15:51:50.900Z,1.40
2022-10-24T15:54:20.476Z,1.43
2022-10-24T15:56:47.809Z,1.40
2022-10-24T15:59:15.254Z,1.63
2022-10-24T16:01:51.716Z,1.70
2022-10-24T16:04:19.366Z,1.63
2022-10-24T16:06:46.365Z,1.80
2022-10-24T16:09:26.659Z,2.20
2022-10-24T16:11:54.751Z,1.70
2022-10-24T16:14:22.589Z,1.70
2022-10-24T16:16:49.956Z,1.70
2022-10-24T16:19:16.962Z,1.90
2022-10-24T16:21:44.280Z,1.80
2022-10-24T16:24:12.842Z,2.30
2022-10-24T16:26:40.324Z,2.87
2022-10-24T16:29:07.952Z,2.30
2022-10-24T16:31:35.589Z,1.47
2022-10-24T16:34:03.008Z,1.73
2022-10-24T16:36:30.108Z,1.83
2022-10-24T16:38:57.154Z,1.77
2022-10-24T16:41:25.842Z,1.80
2022-10-24T16:43:57.314Z,1.57
2022-10-24T16:46:25.921Z,1.90
2022-10-24T16:48:53.399Z,1.60
2022-10-24T16:51:23.838Z,1.90
2022-10-24T16:53:50.922Z,1.50
2022-10-24T16:56:18.032Z,1.20
2022-10-24T16:58:45.047Z,1.63
2022-10-24T17:01:15.507Z,1.60
2022-10-24T17:03:44.874Z,1.37
2022-10-24T17:06:12.230Z,1.40
2022-10-24T17:08:39.388Z,1.90
2022-10-24T17:11:20.174Z,1.40
2022-10-24T17:13:54.625Z,2.00
2022-10-24T17:16:21.699Z,1.50
2022-10-24T17:19:05.039Z,1.60
2022-10-24T17:21:36.895Z,1.60
2022-10-24T17:24:04.618Z,1.97
2022-10-24T17:26:32.486Z,1.73
2022-10-24T17:29:02.595Z,1.60
2022-10-24T17:31:29.823Z,1.80
2022-10-24T17:33:57.184Z,1.50
2022-10-24T17:36:28.650Z,1.83
2022-10-24T17:39:17.886Z,1.67
2022-10-24T17:41:45.121Z,1.83
2022-10-24T17:44:16.732Z,2.20
2022-10-24T17:46:44.971Z,1.57
2022-10-24T17:49:17.926Z,1.80
2022-10-24T17:51:49.118Z,1.70
2022-10-24T17:54:16.623Z,2.00
2022-10-24T17:56:43.736Z,1.60
2022-10-24T17:59:10.871Z,2.70
2022-10-24T18:01:38.357Z,2.30
2022-10-24T18:04:05.527Z,2.10
2022-10-24T18:06:32.727Z,2.63
2022-10-24T18:09:00.161Z,2.20
2022-10-24T18:11:27.262Z,2.03
2022-10-24T18:13:54.243Z,2.10
2022-10-24T18:16:21.958Z,2.43
2022-10-24T18:18:49.437Z,3.13
2022-10-24T18:21:24.916Z,2.87
2022-10-24T18:23:53.158Z,2.60
2022-10-24T18:26:22.789Z,2.73
2022-10-24T18:28:51.491Z,2.60
2022-10-24T18:31:23.928Z,2.30
2022-10-24T18:33:51.632Z,2.47
2022-10-24T18:36:24.801Z,2.30
2022-10-24T18:38:54.978Z,2.40
2022-10-24T18:41:49.730Z,2.80
2022-10-24T18:44:47.526Z,2.60
2022-10-24T18:47:23.178Z,2.63
2022-10-24T18:49:53.101Z,2.40
2022-10-24T18:52:39.903Z,2.80
2022-10-24T18:55:22.024Z,3.17
2022-10-24T18:57:50.535Z,3.93
2022-10-24T19:00:23.441Z,3.00
2022-10-24T19:03:33.624Z,3.70
2022-10-24T19:06:22.473Z,3.07
2022-10-24T19:08:49.742Z,2.93
2022-10-24T19:11:17.071Z,2.70
2022-10-24T19:13:45.069Z,3.43
2022-10-24T19:16:18.990Z,2.50
2022-10-24T19:18:54.666Z,4.20
2022-10-24T19:21:23.181Z,13.33
2022-10-24T19:23:51.362Z,15.43
2022-10-24T19:26:18.498Z,18.63
2022-10-24T19:28:45.564Z,10.87
2022-10-24T19:31:14.972Z,9.30
2022-10-24T19:33:42.522Z,9.47
2022-10-24T19:36:11.532Z,8.03
2022-10-24T19:38:40.321Z,9.77
2022-10-24T19:41:08.955Z,2.90
2022-10-24T19:43:36.043Z,5.20
2022-10-24T19:46:19.506Z,5.03
2022-10-24T19:48:49.579Z,7.27
2022-10-24T19:51:17.992Z,4.30
2022-10-24T19:53:46.560Z,5.27
2022-10-24T19:56:18.999Z,3.77
2022-10-24T19:58:48.368Z,3.73
2022-10-24T20:01:18.991Z,3.93
2022-10-24T20:03:47.830Z,3.20
2022-10-24T20:06:15.421Z,3.87
2022-10-24T20:08:43.040Z,2.40
2022-10-24T20:11:10.227Z,2.70
2022-10-24T20:13:37.262Z,2.57
2022-10-24T20:16:06.754Z,2.03
2022-10-24T20:18:35.880Z,3.03
2022-10-24T20:21:08.464Z,2.37
2022-10-24T20:23:36.411Z,2.57
2022-10-24T20:26:26.978Z,2.40
2022-10-24T20:28:55.919Z,2.20
2022-10-24T20:31:34.738Z,2.40
2022-10-24T20:34:07.065Z,2.30
2022-10-24T20:36:40.075Z,2.40
2022-10-24T20:39:08.113Z,2.57
2022-10-24T20:41:35.554Z,2.10
2022-10-24T20:44:03.566Z,2.50
2022-10-24T20:46:31.721Z,2.30
2022-10-24T20:48:58.827Z,2.47
2022-10-24T20:51:25.933Z,2.80
2022-10-24T20:53:53.457Z,3.30
2022-10-24T20:56:23.474Z,2.80
2022-10-24T20:58:51.278Z,2.83
2022-10-24T21:01:26.971Z,3.67
2022-10-24T21:03:55.431Z,3.00
2022-10-24T21:06:31.235Z,3.80
2022-10-24T21:11:32.747Z,3.90
2022-10-24T21:14:07.965Z,3.53
2022-10-24T21:16:35.112Z,3.67
2022-10-24T21:19:02.947Z,3.63
2022-10-24T21:21:30.549Z,3.87
2022-10-24T21:24:02.622Z,3.77
2022-10-24T21:26:33.300Z,3.17
2022-10-24T21:29:14.536Z,3.33
2022-10-24T21:31:51.502Z,3.93
2022-10-24T21:34:19.381Z,3.60
2022-10-24T21:36:46.475Z,3.93
2022-10-24T21:39:15.774Z,3.30
2022-10-24T21:41:43.598Z,3.43
2022-10-24T21:44:10.874Z,3.13
2022-10-24T21:46:38.088Z,3.03
2022-10-24T21:49:05.110Z,3.43
2022-10-24T21:51:35.241Z,5.00
2022-10-24T21:54:17.516Z,4.10
2022-10-24T21:56:44.722Z,4.70
2022-10-24T21:59:15.091Z,4.90
2022-10-24T22:01:43.503Z,4.10
2022-10-24T22:04:13.281Z,5.43
2022-10-24T22:06:40.885Z,4.30
2022-10-24T22:09:11.401Z,3.10
2022-10-24T22:11:38.510Z,2.67
2022-10-24T22:14:06.263Z,6.43
2022-10-24T22:16:33.821Z,11.93
2022-10-24T22:19:05.997Z,18.17
2022-10-24T22:21:42.160Z,13.40
2022-10-24T22:24:12.271Z,11.10
2022-10-24T22:26:40.065Z,9.77
2022-10-24T22:29:08.470Z,8.63
2022-10-24T22:31:36.172Z,8.20
2022-10-24T22:34:03.738Z,9.17
2022-10-24T22:37:20.137Z,9.43
2022-10-24T22:39:47.543Z,9.20
2022-10-24T22:42:19.180Z,8.50
2022-10-24T22:44:48.446Z,9.20
2022-10-24T22:47:46.272Z,8.40
2022-10-24T22:50:55.533Z,9.00
2022-10-24T22:53:25.631Z,8.47
2022-10-24T22:56:23.115Z,7.40
2022-10-24T22:58:50.494Z,7.50
2022-10-24T23:01:41.762Z,7.17
2022-10-24T23:05:13.545Z,7.90
2022-10-24T23:07:50.239Z,12.60
2022-10-24T23:10:20.718Z,10.93
2022-10-24T23:12:48.440Z,13.23
2022-10-24T23:15:17.494Z,13.97
2022-10-24T23:17:45.607Z,14.90
2022-10-24T23:20:37.019Z,15.70
2022-10-24T23:23:15.756Z,18.80
2022-10-24T23:25:56.319Z,17.03
2022-10-24T23:28:45.209Z,15.60
2022-10-24T23:31:12.644Z,16.13
2022-10-24T23:33:40.167Z,17.67
2022-10-24T23:36:15.011Z,17.17
2022-10-24T23:38:42.434Z,18.50
2022-10-24T23:41:11.464Z,17.47
2022-10-24T23:43:38.967Z,22.00
2022-10-24T23:46:36.175Z,20.97
2022-10-24T23:49:29.120Z,19.97
2022-10-24T23:52:26.379Z,18.57
2022-10-24T23:54:53.986Z,16.03
2022-10-24T23:57:22.029Z,17.73
2022-10-24T23:59:49.019Z,18.83
